Terminal Aerodrome Forecast
Issued by NWS Portland, OR

Home | Current Version | Previous Version | Text Only | Print | Product List | Glossary On
Versions: 1 2 3 4 5 6 7 8 9 10 11 12 13 14 15 16 17 18 19 20 21 22 23 24 25 26 27 28 29 30
000
FTUS46 KPQR 102321
TAFAST
TAF
KAST 102321Z 1100/1124 20010G20KT 2SM BR BKN009 OVC015
     FM110200 21008KT 5SM BR BKN015 OVC040
     FM110900 12004KT 4SM BR VCSH OVC050
     FM111700 12010KT 2SM -RA BR OVC040
     FM112100 14008KT 2SM -RA BR OVC020=

USA.gov is the U.S. government's official web portal to all federal, state and local government web resources and services.